Time;durP1;ratioP1;P1;durP2;ratioP2;P2;SDS_P1;SDS_P2;PMS_P1;PMS_P2;Temp;Humidity;BMP_temperature;BMP_pressure;BME280_temperature;BME280_humidity;BME280_pressure;Samples;Min_cycle;Max_cycle;Signal;HPM_P1;HPM_P2
2022/03/14 05:00:44;;;;;;;3.73;3.43;;;9.30;99.90;;;;;;5837522;23;20507;-65
2022/03/14 05:03:11;;;;;;;3.67;3.37;;;9.30;99.90;;;;;;5014446;28;20523;-66
2022/03/14 05:05:38;;;;;;;3.83;3.63;;;9.30;99.90;;;;;;5014264;28;20990;-66
2022/03/14 05:08:05;;;;;;;4.10;3.60;;;9.30;99.90;;;;;;5014093;28;20939;-65
2022/03/14 05:10:32;;;;;;;4.40;4.10;;;9.30;99.90;;;;;;5014143;28;20468;-66
2022/03/14 05:13:00;;;;;;;4.60;4.30;;;9.30;99.90;;;;;;5014234;28;20464;-66
2022/03/14 05:15:27;;;;;;;4.63;3.60;;;9.30;99.90;;;;;;5014279;28;20453;-65
2022/03/14 05:17:55;;;;;;;4.03;3.73;;;9.20;99.90;;;;;;5014029;28;20459;-65
2022/03/14 05:20:22;;;;;;;4.93;4.03;;;9.20;99.90;;;;;;5013894;28;20563;-65
2022/03/14 05:22:51;;;;;;;3.80;3.60;;;9.30;99.90;;;;;;5014042;28;20457;-64
2022/03/14 05:25:19;;;;;;;4.13;3.70;;;9.20;99.90;;;;;;5013919;28;20507;-65
2022/03/14 05:27:46;;;;;;;3.93;3.73;;;9.20;99.90;;;;;;5014001;28;20824;-65
2022/03/14 05:30:13;;;;;;;3.83;3.53;;;9.20;99.90;;;;;;5013519;28;20457;-65
2022/03/14 05:32:41;;;;;;;5.50;4.10;;;9.10;99.90;;;;;;5014003;28;20545;-65
2022/03/14 05:35:11;;;;;;;3.77;3.47;;;9.10;99.90;;;;;;5013884;28;20448;-64
2022/03/14 05:37:38;;;;;;;3.23;3.03;;;9.10;99.90;;;;;;5013995;28;20529;-65
2022/03/14 05:40:06;;;;;;;4.60;4.30;;;9.10;99.90;;;;;;5014461;28;20809;-65
2022/03/14 05:42:32;;;;;;;3.90;3.60;;;9.10;99.90;;;;;;5013701;28;20524;-65
2022/03/14 05:44:59;;;;;;;4.60;4.23;;;9.10;99.90;;;;;;5013971;28;20457;-65
2022/03/14 05:47:26;;;;;;;3.97;3.67;;;9.10;99.90;;;;;;5013802;28;20989;-65
2022/03/14 05:49:53;;;;;;;4.50;4.10;;;9.00;99.90;;;;;;5013928;28;20457;-66
2022/03/14 05:52:21;;;;;;;3.70;3.50;;;9.10;99.90;;;;;;5014262;28;20469;-67
2022/03/14 05:54:48;;;;;;;4.20;3.87;;;9.10;99.90;;;;;;5017951;28;20515;-67
2022/03/14 05:57:15;;;;;;;4.57;3.60;;;9.00;99.90;;;;;;5017893;28;20464;-67
2022/03/14 05:59:42;;;;;;;3.63;3.43;;;9.00;99.90;;;;;;5016650;28;20460;-66
2022/03/14 06:02:10;;;;;;;4.50;2.87;;;9.00;99.90;;;;;;5015595;28;20484;-66
2022/03/14 06:04:38;;;;;;;3.43;2.30;;;9.00;99.90;;;;;;5014749;28;20863;-66
2022/03/14 06:07:05;;;;;;;1.83;1.73;;;8.90;99.90;;;;;;5014156;28;20468;-66
2022/03/14 06:09:33;;;;;;;2.70;1.80;;;8.90;99.90;;;;;;5015239;28;20795;-65
2022/03/14 06:12:00;;;;;;;2.97;1.63;;;8.80;99.90;;;;;;5017164;28;20469;-65
2022/03/14 06:14:26;;;;;;;8.90;1.83;;;8.70;99.90;;;;;;5017932;28;20453;-66
2022/03/14 06:16:53;;;;;;;4.30;1.23;;;8.70;99.90;;;;;;5017991;28;20798;-66
2022/03/14 06:19:20;;;;;;;2.23;0.80;;;8.60;99.90;;;;;;5017746;28;20456;-66
2022/03/14 06:21:46;;;;;;;4.80;1.30;;;8.50;99.90;;;;;;5017585;28;20477;-66
2022/03/14 06:24:13;;;;;;;6.73;1.47;;;8.50;99.90;;;;;;5018110;28;20801;-66
2022/03/14 06:26:41;;;;;;;3.13;1.70;;;8.50;99.90;;;;;;5017816;28;20457;-67
2022/03/14 06:29:08;;;;;;;3.30;1.07;;;8.50;99.90;;;;;;5017726;28;20488;-67
2022/03/14 06:31:35;;;;;;;4.63;1.13;;;8.50;99.90;;;;;;5017675;28;20469;-66
2022/03/14 06:34:02;;;;;;;4.03;1.20;;;8.50;99.90;;;;;;5017810;28;20881;-63
2022/03/14 06:36:29;;;;;;;4.07;1.40;;;8.50;99.90;;;;;;5017484;28;20933;-63
2022/03/14 06:38:59;;;;;;;2.87;1.70;;;8.50;99.90;;;;;;5017449;28;20515;-65
2022/03/14 06:41:26;;;;;;;5.50;1.03;;;8.60;99.90;;;;;;5017121;28;20480;-63
2022/03/14 06:43:56;;;;;;;1.40;1.17;;;8.60;99.90;;;;;;5019385;28;20449;-65
2022/03/14 06:46:23;;;;;;;6.63;1.70;;;8.70;99.90;;;;;;5023138;28;20453;-65
2022/03/14 06:48:50;;;;;;;3.00;1.47;;;8.70;99.90;;;;;;5023177;28;20449;-64
2022/03/14 06:51:17;;;;;;;4.00;1.60;;;8.80;99.90;;;;;;5019691;28;20473;-63
2022/03/14 06:53:43;;;;;;;4.03;1.17;;;8.90;99.90;;;;;;5018794;28;20543;-64
2022/03/14 06:56:10;;;;;;;2.70;1.70;;;9.30;99.90;;;;;;5018244;28;20464;-64
2022/03/14 06:58:37;;;;;;;4.17;1.80;;;9.80;99.90;;;;;;5018057;28;20508;-64
2022/03/14 07:01:05;;;;;;;2.43;1.37;;;10.30;99.90;;;;;;5017342;28;20490;-65
2022/03/14 07:03:32;;;;;;;6.33;1.47;;;10.80;99.90;;;;;;5017651;28;20460;-64
2022/03/14 07:05:58;;;;;;;1.10;1.00;;;11.20;99.90;;;;;;5017463;28;20453;-64
2022/03/14 07:08:25;;;;;;;10.47;1.87;;;11.70;99.90;;;;;;5016976;28;20448;-64
2022/03/14 07:10:54;;;;;;;1.50;1.40;;;12.30;99.90;;;;;;5017309;28;20472;-62
2022/03/14 07:13:20;;;;;;;3.83;1.47;;;12.90;99.90;;;;;;5017034;28;20548;-63
2022/03/14 07:15:47;;;;;;;2.60;1.30;;;13.70;99.90;;;;;;5016795;28;20461;-63
2022/03/14 07:18:15;;;;;;;2.43;1.30;;;14.50;99.90;;;;;;5016317;28;20831;-63
2022/03/14 07:20:42;;;;;;;5.05;1.50;;;15.00;99.90;;;;;;5016934;28;20473;-64
2022/03/14 07:23:09;;;;;;;1.77;1.17;;;15.70;99.90;;;;;;5016002;28;20453;-63
2022/03/14 07:25:38;;;;;;;3.67;1.40;;;16.30;99.90;;;;;;5016095;28;20457;-65
2022/03/14 07:28:07;;;;;;;2.50;1.47;;;16.70;99.90;;;;;;5017586;28;20855;-64
2022/03/14 07:30:34;;;;;;;2.83;1.70;;;17.20;99.90;;;;;;5016680;28;20560;-65
2022/03/14 07:33:01;;;;;;;6.70;1.50;;;17.80;99.80;;;;;;5016805;28;20821;-64
2022/03/14 07:35:30;;;;;;;;;;;18.20;98.90;;;;;;5016915;28;20830;-64
2022/03/14 07:37:57;;;;;;;;;;;18.60;93.60;;;;;;5017000;28;20400;-65
2022/03/14 07:40:24;;;;;;;2.20;1.30;;;19.00;91.10;;;;;;5017345;28;20173;-63
2022/03/14 07:42:52;;;;;;;2.80;1.60;;;19.50;91.50;;;;;;5019729;28;20480;-63
2022/03/14 07:45:21;;;;;;;5.60;1.97;;;19.80;88.30;;;;;;5017134;28;20464;-64
2022/03/14 07:47:48;;;;;;;3.60;1.67;;;19.80;85.50;;;;;;5017144;28;20454;-63
2022/03/14 07:50:18;;;;;;;3.03;1.30;;;19.90;87.00;;;;;;5020578;28;20457;-64
2022/03/14 07:52:47;;;;;;;2.43;1.70;;;20.20;84.70;;;;;;5015956;28;20456;-63
2022/03/14 07:55:14;;;;;;;1.60;1.03;;;20.50;80.60;;;;;;5015594;28;20544;-63
2022/03/14 07:57:41;;;;;;;;;;;20.50;78.50;;;;;;5015723;28;20900;-63
2022/03/14 08:00:13;;;;;;;2.23;1.80;;;20.70;78.50;;;;;;5015455;28;20215;-63
2022/03/14 08:02:40;;;;;;;5.10;1.83;;;20.40;75.30;;;;;;5014952;28;20469;-63
2022/03/14 08:05:09;;;;;;;1.83;1.40;;;20.60;76.20;;;;;;5015078;28;20937;-63
2022/03/14 08:07:37;;;;;;;3.13;1.47;;;20.30;73.40;;;;;;5015370;28;20453;-63
2022/03/14 08:10:09;;;;;;;2.43;1.53;;;19.70;75.10;;;;;;5015905;28;20448;-63
2022/03/14 08:12:45;;;;;;;2.07;1.30;;;18.90;78.20;;;;;;5015196;28;20468;-63
2022/03/14 08:15:15;;;;;;;2.73;1.77;;;18.40;79.10;;;;;;5015360;28;20441;-63
2022/03/14 08:17:41;;;;;;;5.77;2.53;;;17.40;81.00;;;;;;5014860;28;20461;-62
2022/03/14 08:20:09;;;;;;;2.47;1.30;;;17.00;86.10;;;;;;5014943;28;20458;-63
2022/03/14 08:22:36;;;;;;;1.90;0.90;;;16.60;84.90;;;;;;5014951;28;20485;-63
2022/03/14 08:25:05;;;;;;;2.23;1.23;;;16.00;85.80;;;;;;5015157;28;20453;-63
2022/03/14 08:27:31;;;;;;;2.60;1.03;;;15.50;86.80;;;;;;5015076;28;20464;-63
2022/03/14 08:29:58;;;;;;;2.67;1.23;;;14.90;89.10;;;;;;5014953;28;20460;-62
2022/03/14 08:32:26;;;;;;;3.90;1.40;;;14.40;90.50;;;;;;5014467;28;20830;-63
2022/03/14 08:34:53;;;;;;;2.93;1.10;;;13.90;92.80;;;;;;5013757;28;20948;-62
2022/03/14 08:37:20;;;;;;;3.70;1.20;;;13.90;93.70;;;;;;5014420;28;20945;-64
2022/03/14 08:39:48;;;;;;;2.13;1.23;;;14.20;92.90;;;;;;5014750;28;20481;-63
2022/03/14 08:42:16;;;;;;;3.93;1.33;;;14.50;92.60;;;;;;5014717;28;20535;-63
2022/03/14 08:44:43;;;;;;;4.33;1.17;;;15.00;92.00;;;;;;5014785;28;20453;-63
2022/03/14 08:47:09;;;;;;;4.27;1.20;;;15.30;91.50;;;;;;5014764;28;20507;-63
2022/03/14 08:49:37;;;;;;;2.90;1.30;;;15.20;90.60;;;;;;5014632;28;20823;-62
2022/03/14 08:52:05;;;;;;;2.63;1.43;;;16.00;90.00;;;;;;5014490;28;20477;-63
2022/03/14 08:54:32;;;;;;;2.63;1.20;;;16.60;87.00;;;;;;5014709;28;20457;-63
2022/03/14 08:56:58;;;;;;;2.30;1.07;;;17.00;82.60;;;;;;5015072;28;20453;-63
2022/03/14 08:59:26;;;;;;;3.60;1.53;;;16.70;84.20;;;;;;5015567;28;20460;-63
2022/03/14 09:01:53;;;;;;;3.47;1.23;;;16.50;84.70;;;;;;5013972;28;20485;-63
2022/03/14 09:04:20;;;;;;;3.03;1.20;;;15.90;84.10;;;;;;5014441;28;20460;-62
2022/03/14 09:06:46;;;;;;;5.00;1.10;;;15.50;84.40;;;;;;5014321;28;20468;-63
2022/03/14 09:09:13;;;;;;;3.80;1.53;;;15.20;83.10;;;;;;5014180;28;20507;-63
2022/03/14 09:11:40;;;;;;;3.53;1.67;;;14.90;84.10;;;;;;5014411;28;20496;-64
2022/03/14 09:14:06;;;;;;;2.50;1.20;;;14.50;82.20;;;;;;5017945;28;20464;-63
2022/03/14 09:16:35;;;;;;;2.53;1.33;;;14.20;85.80;;;;;;5014400;28;20459;-63
2022/03/14 09:19:02;;;;;;;2.15;1.20;;;14.00;85.20;;;;;;5014034;28;20958;-63
2022/03/14 09:21:33;;;;;;;2.53;1.17;;;14.30;87.60;;;;;;5014308;28;20509;-63
2022/03/14 09:24:01;;;;;;;9.93;1.77;;;14.60;87.10;;;;;;5014090;28;20437;-63
2022/03/14 09:26:27;;;;;;;4.33;1.47;;;14.80;84.60;;;;;;5014022;28;20449;-63
2022/03/14 09:28:54;;;;;;;5.43;1.10;;;15.10;86.20;;;;;;5014214;28;20456;-63
2022/03/14 09:31:21;;;;;;;3.73;1.23;;;14.90;81.50;;;;;;5014423;28;20469;-63
2022/03/14 09:33:50;;;;;;;2.43;1.40;;;14.70;81.50;;;;;;5015344;28;20987;-63
2022/03/14 09:36:17;;;;;;;4.07;1.37;;;14.50;91.40;;;;;;5014969;28;20449;-64
2022/03/14 09:38:43;;;;;;;;;;;14.80;90.90;;;;;;5014662;28;20328;-63
2022/03/14 09:41:13;;;;;;;1.27;1.17;;;15.60;91.70;;;;;;5014298;28;19921;-63
2022/03/14 09:43:41;;;;;;;2.63;1.60;;;16.80;81.50;;;;;;5014171;28;20453;-63
2022/03/14 09:46:08;;;;;;;4.43;1.23;;;17.80;78.70;;;;;;5014368;28;20933;-63
2022/03/14 09:48:39;;;;;;;1.83;1.27;;;18.70;78.40;;;;;;5018185;28;20477;-63
2022/03/14 09:51:08;;;;;;;3.00;1.40;;;19.30;71.10;;;;;;5017652;28;20834;-64
2022/03/14 09:53:36;;;;;;;4.70;1.50;;;19.90;72.50;;;;;;5018093;28;20837;-63
2022/03/14 09:56:03;;;;;;;;;;;20.50;68.90;;;;;;5018388;28;20331;-64
2022/03/14 09:58:29;;;;;;;;;;;21.20;65.50;;;;;;5018311;28;20384;-64
2022/03/14 10:00:59;;;;;;;;;;;21.70;63.20;;;;;;5017645;28;19925;-65
2022/03/14 10:03:26;;;;;;;;;;;21.70;59.80;;;;;;5017842;28;19958;-63
2022/03/14 10:05:52;;;;;;;;;;;22.10;60.30;;;;;;5018304;28;20020;-64
2022/03/14 10:08:22;;;;;;;;;;;22.80;59.60;;;;;;5017673;28;19925;-63
2022/03/14 10:10:49;;;;;;;;;;;23.30;57.10;;;;;;5018031;28;19928;-62
2022/03/14 10:13:16;;;;;;;;;;;23.70;57.30;;;;;;5017681;28;19921;-64
2022/03/14 10:15:43;;;;;;;;;;;24.40;55.70;;;;;;5017724;28;19925;-64
2022/03/14 10:18:10;;;;;;;;;;;24.60;55.10;;;;;;5017861;28;19947;-64
2022/03/14 10:20:37;;;;;;;;;;;24.60;52.30;;;;;;5018160;28;19972;-65
2022/03/14 10:23:04;;;;;;;;;;;24.30;53.40;;;;;;5018115;28;19921;-65
2022/03/14 10:25:32;;;;;;;;;;;23.80;52.60;;;;;;5022318;28;19928;-65
2022/03/14 10:27:59;;;;;;;;;;;23.90;54.30;;;;;;5021975;28;19921;-65
2022/03/14 10:30:27;;;;;;;;;;;24.50;53.90;;;;;;5019713;28;19922;-65
2022/03/14 10:32:58;;;;;;;;;;;24.70;50.80;;;;;;5019390;28;19964;-65
2022/03/14 10:35:25;;;;;;;;;;;25.10;49.60;;;;;;5018737;28;19921;-65
2022/03/14 10:37:58;;;;;;;;;;;25.00;49.20;;;;;;5018469;28;19953;-65
2022/03/14 10:40:29;;;;;;;;;;;25.10;48.20;;;;;;5017677;28;19921;-65
2022/03/14 10:42:56;;;;;;;;;;;25.20;46.80;;;;;;5018207;28;19929;-65
2022/03/14 10:45:23;;;;;;;;;;;25.50;48.80;;;;;;5018695;28;19979;-65
2022/03/14 10:47:53;;;;;;;;;;;25.00;47.70;;;;;;5017779;28;19952;-65
2022/03/14 10:50:30;;;;;;;;;;;24.50;46.30;;;;;;5017396;28;20276;-65
2022/03/14 10:53:07;;;;;;;;;;;23.60;47.00;;;;;;5018045;28;19921;-66
2022/03/14 10:55:42;;;;;;;3.90;1.70;;;22.40;48.30;;;;;;5016892;28;20200;-65
2022/03/14 10:58:16;;;;;;;2.53;1.30;;;21.60;52.60;;;;;;5015439;28;20437;-65
2022/03/14 11:00:47;;;;;;;4.60;1.63;;;21.00;51.30;;;;;;5016283;28;20497;-65
2022/03/14 11:03:25;;;;;;;3.27;1.40;;;20.40;52.60;;;;;;5016556;28;20576;-65
2022/03/14 11:05:52;;;;;;;1.83;1.13;;;19.90;53.60;;;;;;5017705;28;20452;-66
2022/03/14 11:08:27;;;;;;;4.27;1.50;;;19.10;53.80;;;;;;5016823;28;20305;-65
2022/03/14 11:10:54;;;;;;;3.07;1.07;;;18.50;54.50;;;;;;5016253;28;20512;-65
2022/03/14 11:13:22;;;;;;;5.37;1.20;;;18.00;57.50;;;;;;5016967;28;20460;-65
2022/03/14 11:15:49;;;;;;;3.33;1.47;;;17.70;57.40;;;;;;5019545;28;20460;-65
2022/03/14 11:18:17;;;;;;;6.53;1.50;;;17.30;56.80;;;;;;5018635;28;21000;-65
2022/03/14 11:20:44;;;;;;;4.43;1.47;;;17.10;57.20;;;;;;5016154;28;20543;-65
2022/03/14 11:23:13;;;;;;;3.40;1.30;;;16.80;58.60;;;;;;5015976;28;20485;-65
2022/03/14 11:25:39;;;;;;;2.13;1.30;;;16.60;57.60;;;;;;5015835;28;20454;-65
2022/03/14 11:28:07;;;;;;;3.03;1.17;;;16.50;57.50;;;;;;5015647;28;20483;-65
2022/03/14 11:30:38;;;;;;;5.10;1.67;;;16.60;57.50;;;;;;5016345;28;20812;-65
2022/03/14 11:33:05;;;;;;;1.77;1.20;;;16.60;59.20;;;;;;5015835;28;20437;-65
2022/03/14 11:35:33;;;;;;;2.10;1.20;;;16.70;58.60;;;;;;5015875;28;20453;-65
2022/03/14 11:38:01;;;;;;;;;;;16.90;62.00;;;;;;5016148;28;20308;-65
2022/03/14 11:40:27;;;;;;;;;;;17.30;61.30;;;;;;5015572;28;20607;-64
2022/03/14 11:42:54;;;;;;;2.37;1.20;;;17.50;57.70;;;;;;5015659;28;20104;-64
2022/03/14 11:45:22;;;;;;;1.90;1.47;;;17.80;58.90;;;;;;5015645;28;20453;-65
2022/03/14 11:47:53;;;;;;;3.83;1.17;;;17.90;58.60;;;;;;5015597;28;20460;-65
2022/03/14 11:50:22;;;;;;;3.60;1.50;;;18.10;57.90;;;;;;5016114;28;20455;-65
2022/03/14 11:52:50;;;;;;;1.97;1.00;;;18.20;59.50;;;;;;5015415;28;20343;-65
2022/03/14 11:55:19;;;;;;;4.77;1.50;;;18.60;57.10;;;;;;5015398;28;20493;-66
2022/03/14 11:57:47;;;;;;;4.03;1.40;;;18.70;57.10;;;;;;5015357;28;20484;-65
2022/03/14 12:00:34;;;;;;;1.90;1.13;;;18.80;57.40;;;;;;5015433;28;20515;-65
2022/03/14 12:03:05;;;;;;;3.20;1.50;;;18.70;56.00;;;;;;5015130;28;20544;-65
2022/03/14 12:05:50;;;;;;;2.67;1.10;;;18.30;55.70;;;;;;5015308;28;20444;-65
2022/03/14 12:09:00;;;;;;;1.57;1.20;;;17.80;56.00;;;;;;5015534;28;20456;-65
2022/03/14 12:11:41;;;;;;;6.87;1.70;;;17.40;57.60;;;;;;5015449;28;20500;-65
2022/03/14 12:14:13;;;;;;;6.50;1.40;;;17.10;60.60;;;;;;5014754;28;20897;-65
2022/03/14 12:16:45;;;;;;;1.23;1.00;;;17.10;60.80;;;;;;5019326;28;20871;-65
2022/03/14 12:19:30;;;;;;;2.07;1.20;;;17.20;62.20;;;;;;5015453;28;20457;-65
2022/03/14 12:21:58;;;;;;;1.70;1.20;;;17.50;58.80;;;;;;5015163;28;20495;-65
2022/03/14 12:24:49;;;;;;;1.90;1.30;;;17.60;59.20;;;;;;5014866;28;20473;-65
2022/03/14 12:27:17;;;;;;;5.20;1.20;;;17.90;60.20;;;;;;5015024;28;20453;-65
2022/03/14 12:29:46;;;;;;;3.90;1.27;;;18.00;60.90;;;;;;5015092;28;20461;-65
2022/03/14 12:32:38;;;;;;;1.57;1.30;;;18.20;59.50;;;;;;5015145;28;20477;-65
2022/03/14 12:35:11;;;;;;;2.50;1.40;;;18.50;59.30;;;;;;4995614;28;20467;-66
2022/03/14 12:37:44;;;;;;;1.30;1.10;;;18.60;57.20;;;;;;5014621;28;20430;-65
2022/03/14 12:40:15;;;;;;;;;;;18.60;57.40;;;;;;5015138;28;20344;-65
2022/03/14 12:42:43;;;;;;;;;;;18.70;58.90;;;;;;5015019;28;19929;-65
2022/03/14 12:45:13;;;;;;;;;;;18.90;60.80;;;;;;5015068;28;20016;-65
2022/03/14 12:47:40;;;;;;;;;;;19.10;59.20;;;;;;5014467;28;19921;-66
2022/03/14 12:50:09;;;;;;;;;;;19.20;59.10;;;;;;5014845;28;19964;-65
2022/03/14 12:52:51;;;;;;;;;;;19.40;58.20;;;;;;5014456;28;19987;-65
2022/03/14 12:55:18;;;;;;;;;;;19.40;59.30;;;;;;5013808;28;19944;-66
2022/03/14 12:57:50;;;;;;;;;;;19.30;57.30;;;;;;5014821;28;19940;-65
2022/03/14 13:00:17;;;;;;;;;;;19.20;58.50;;;;;;5014454;28;19925;-64
2022/03/14 13:02:44;;;;;;;;;;;19.40;58.60;;;;;;5014511;28;20355;-66
2022/03/14 13:05:11;;;;;;;;;;;19.50;58.30;;;;;;5014412;28;20402;-65
2022/03/14 13:07:38;;;;;;;;;;;19.40;57.50;;;;;;5014536;28;19940;-65
2022/03/14 13:10:06;;;;;;;;;;;19.10;57.40;;;;;;5014623;28;20292;-65
2022/03/14 13:12:33;;;;;;;;;;;19.10;57.50;;;;;;5014736;28;19928;-64
2022/03/14 13:15:03;;;;;;;;;;;19.10;58.30;;;;;;5015634;28;19921;-64
2022/03/14 13:17:30;;;;;;;;;;;19.10;59.00;;;;;;5014786;28;19976;-64
2022/03/14 13:19:56;;;;;;;;;;;19.10;57.80;;;;;;5015078;28;19928;-64
2022/03/14 13:22:24;;;;;;;;;;;19.00;58.20;;;;;;5014001;28;19928;-64
2022/03/14 13:24:53;;;;;;;;;;;19.10;59.30;;;;;;5014542;28;19925;-64
2022/03/14 13:27:22;;;;;;;;;;;19.10;61.10;;;;;;5014787;28;19921;-64
2022/03/14 13:29:49;;;;;;;;;;;18.80;57.80;;;;;;5014914;28;19922;-64
2022/03/14 13:32:17;;;;;;;;;;;18.40;58.80;;;;;;5015058;28;19932;-65
2022/03/14 13:34:43;;;;;;;;;;;18.30;58.60;;;;;;5019356;28;20421;-64
2022/03/14 13:37:11;;;;;;;;;;;18.20;58.00;;;;;;5022501;28;19921;-64
2022/03/14 13:39:41;;;;;;;;;;;18.00;57.70;;;;;;5019179;28;19952;-64
2022/03/14 13:42:07;;;;;;;;;;;18.10;59.00;;;;;;5014982;28;20274;-65
2022/03/14 13:44:34;;;;;;;;;;;18.10;59.50;;;;;;5017645;28;20294;-65
2022/03/14 13:47:02;;;;;;;;;;;18.00;59.40;;;;;;5017707;28;19929;-64
2022/03/14 13:49:29;;;;;;;;;;;18.20;60.90;;;;;;5016829;28;19933;-64
2022/03/14 13:51:56;;;;;;;;;;;18.20;57.80;;;;;;5015249;28;19925;-64
2022/03/14 13:54:24;;;;;;;;;;;18.20;58.50;;;;;;5015914;28;20331;-64
2022/03/14 13:56:54;;;;;;;4.50;1.50;;;18.40;60.50;;;;;;5013509;28;20016;-65
2022/03/14 13:59:27;;;;;;;2.13;1.03;;;18.50;59.20;;;;;;5013349;28;20437;-64
2022/03/14 14:01:54;;;;;;;2.03;1.10;;;18.40;57.80;;;;;;5012866;28;20596;-64
2022/03/14 14:04:26;;;;;;;2.50;1.10;;;18.40;58.80;;;;;;5013337;28;20492;-64
2022/03/14 14:06:56;;;;;;;3.67;1.23;;;18.40;58.30;;;;;;5013656;28;20503;-64
2022/03/14 14:09:26;;;;;;;2.83;1.00;;;18.30;58.90;;;;;;5013472;28;20448;-64
2022/03/14 14:12:03;;;;;;;2.40;1.00;;;18.20;58.50;;;;;;5013485;28;20479;-64
2022/03/14 14:14:31;;;;;;;2.27;1.47;;;18.30;59.60;;;;;;5012980;28;20438;-64
2022/03/14 14:17:18;;;;;;;3.73;1.23;;;18.20;59.50;;;;;;5013390;28;20460;-64
2022/03/14 14:20:05;;;;;;;3.00;1.30;;;18.20;59.70;;;;;;5013232;28;20448;-64
2022/03/14 14:22:33;;;;;;;3.00;1.20;;;18.40;61.70;;;;;;5012517;28;20500;-64
2022/03/14 14:25:02;;;;;;;2.43;1.40;;;18.50;58.50;;;;;;5012744;28;20951;-64
2022/03/14 14:27:30;;;;;;;1.37;1.00;;;18.60;57.80;;;;;;5013260;28;20979;-64
2022/03/14 14:30:00;;;;;;;3.10;1.17;;;18.50;57.90;;;;;;5013301;28;20462;-64
2022/03/14 14:32:29;;;;;;;3.50;1.10;;;18.50;58.60;;;;;;5013239;28;20891;-65
2022/03/14 14:34:57;;;;;;;1.43;1.33;;;18.60;61.40;;;;;;5016490;28;20480;-64
2022/03/14 14:37:24;;;;;;;1.60;1.07;;;18.70;62.80;;;;;;5016755;28;20551;-64
2022/03/14 14:39:51;;;;;;;3.87;1.03;;;18.90;65.20;;;;;;5016900;28;20485;-65
2022/03/14 14:42:18;;;;;;;2.25;1.00;;;19.00;59.60;;;;;;5016436;28;20454;-63
2022/03/14 14:44:46;;;;;;;4.73;1.40;;;19.00;60.80;;;;;;5016585;28;20689;-64
2022/03/14 14:47:13;;;;;;;3.40;1.13;;;18.70;58.90;;;;;;5016738;28;20974;-64
2022/03/14 14:49:41;;;;;;;5.70;1.27;;;18.50;60.00;;;;;;5016690;28;20465;-64
2022/03/14 14:52:08;;;;;;;4.10;1.03;;;18.40;58.60;;;;;;5016447;28;20567;-64
2022/03/14 14:54:35;;;;;;;1.93;1.20;;;18.00;58.40;;;;;;5016744;28;20453;-63
2022/03/14 14:57:04;;;;;;;3.37;1.90;;;17.50;58.90;;;;;;5016685;28;20480;-63
2022/03/14 14:59:31;;;;;;;3.43;1.30;;;17.50;60.20;;;;;;5016594;28;20552;-64
2022/03/14 15:01:59;;;;;;;1.93;0.97;;;17.50;60.30;;;;;;5015944;28;20565;-64
2022/03/14 15:04:26;;;;;;;2.53;1.40;;;17.40;63.10;;;;;;5015857;28;20509;-64
2022/03/14 15:06:52;;;;;;;4.87;1.47;;;17.50;59.90;;;;;;5016152;28;20195;-65
2022/03/14 15:09:19;;;;;;;2.63;1.30;;;17.50;59.60;;;;;;5016211;28;20531;-64
2022/03/14 15:11:47;;;;;;;3.97;1.40;;;17.40;59.30;;;;;;5016257;28;20477;-64
2022/03/14 15:14:15;;;;;;;2.30;1.10;;;17.20;59.20;;;;;;5016046;28;21067;-64
2022/03/14 15:16:42;;;;;;;3.00;1.33;;;17.20;59.60;;;;;;5016411;28;20449;-64
2022/03/14 15:19:11;;;;;;;1.27;0.90;;;17.20;61.00;;;;;;5017810;28;20457;-64
2022/03/14 15:21:38;;;;;;;5.10;1.20;;;17.20;59.10;;;;;;5016729;28;20484;-65
2022/03/14 15:24:06;;;;;;;1.87;1.00;;;17.20;59.40;;;;;;5015874;28;20481;-63
2022/03/14 15:26:33;;;;;;;4.60;1.00;;;17.20;59.40;;;;;;5015975;28;20460;-64
2022/03/14 15:29:00;;;;;;;2.20;1.10;;;17.10;59.60;;;;;;5015843;28;20460;-64
2022/03/14 15:31:27;;;;;;;2.27;1.10;;;17.00;59.20;;;;;;5015869;28;20488;-64
2022/03/14 15:33:54;;;;;;;1.60;1.10;;;16.90;59.50;;;;;;5015881;28;20449;-64
2022/03/14 15:36:22;;;;;;;2.23;1.40;;;17.00;59.50;;;;;;5015616;28;20460;-64
2022/03/14 15:38:49;;;;;;;1.73;1.10;;;16.90;59.80;;;;;;5015697;28;20458;-66
2022/03/14 15:41:15;;;;;;;2.73;1.10;;;16.70;59.20;;;;;;5015816;28;20527;-64
2022/03/14 15:43:42;;;;;;;14.10;7.20;;;16.60;59.80;;;;;;5015414;28;20508;-63
2022/03/14 15:46:09;;;;;;;2.27;2.10;;;16.40;59.90;;;;;;5015243;28;20457;-65
2022/03/14 15:48:36;;;;;;;3.90;2.97;;;16.20;60.60;;;;;;5015431;28;20965;-65
2022/03/14 15:51:04;;;;;;;5.60;2.47;;;16.10;60.70;;;;;;5015266;28;20481;-65
2022/03/14 15:53:32;;;;;;;2.40;2.27;;;15.90;61.60;;;;;;5015025;28;20599;-65
2022/03/14 15:55:59;;;;;;;5.33;2.60;;;15.80;61.80;;;;;;5015547;28;20453;-65
2022/03/14 15:58:25;;;;;;;4.20;1.40;;;15.70;62.90;;;;;;5015356;28;20488;-64
2022/03/14 16:00:52;;;;;;;5.40;1.60;;;15.50;62.30;;;;;;5015093;28;20484;-65
2022/03/14 16:03:19;;;;;;;2.70;1.30;;;15.40;62.00;;;;;;5015470;28;20457;-64
2022/03/14 16:05:47;;;;;;;1.70;1.57;;;15.30;62.90;;;;;;5015700;28;20527;-63
2022/03/14 16:08:14;;;;;;;3.73;1.77;;;15.30;63.80;;;;;;5015311;28;20460;-64
2022/03/14 16:10:43;;;;;;;3.20;1.57;;;15.20;64.30;;;;;;5015133;28;20473;-63
2022/03/14 16:13:09;;;;;;;2.10;1.20;;;15.20;64.30;;;;;;5014902;28;20460;-63
2022/03/14 16:15:37;;;;;;;3.50;2.10;;;15.10;63.70;;;;;;5014943;28;20944;-63
2022/03/14 16:18:03;;;;;;;2.70;2.10;;;15.00;64.30;;;;;;5015219;28;20485;-65
2022/03/14 16:20:30;;;;;;;2.40;1.27;;;14.90;64.90;;;;;;5015175;28;20453;-64
2022/03/14 16:22:57;;;;;;;3.30;1.60;;;14.90;65.60;;;;;;5015318;28;20461;-65
2022/03/14 16:25:24;;;;;;;2.67;1.67;;;14.90;65.30;;;;;;5014982;28;20480;-64
2022/03/14 16:27:55;;;;;;;4.03;1.40;;;14.80;65.60;;;;;;5014685;28;20940;-64
2022/03/14 16:30:22;;;;;;;4.20;1.80;;;14.80;66.10;;;;;;5014768;28;20525;-64
2022/03/14 16:32:49;;;;;;;5.47;1.40;;;14.70;66.10;;;;;;5014861;28;20453;-64
2022/03/14 16:35:16;;;;;;;5.00;1.80;;;14.60;66.30;;;;;;5014840;28;20481;-64
2022/03/14 16:37:43;;;;;;;4.23;2.00;;;14.40;66.50;;;;;;5014810;28;20465;-65
2022/03/14 16:40:12;;;;;;;4.10;1.70;;;14.30;66.80;;;;;;5014926;28;20441;-64
2022/03/14 16:42:40;;;;;;;2.80;2.00;;;14.30;67.20;;;;;;5014878;28;20821;-64
2022/03/14 16:45:09;;;;;;;2.93;2.10;;;14.20;67.40;;;;;;5014427;28;20465;-64
2022/03/14 16:47:36;;;;;;;2.70;1.57;;;14.20;67.80;;;;;;5014842;28;20457;-64
2022/03/14 16:50:03;;;;;;;2.07;1.40;;;14.20;68.10;;;;;;5014502;28;20962;-63
2022/03/14 16:52:30;;;;;;;2.20;1.43;;;14.20;68.40;;;;;;5014837;28;20802;-64
2022/03/14 16:54:57;;;;;;;3.73;1.23;;;14.20;68.90;;;;;;5014409;28;20448;-64
2022/03/14 16:57:24;;;;;;;3.10;1.70;;;14.10;69.10;;;;;;5013857;28;20531;-65
2022/03/14 16:59:50;;;;;;;5.17;1.57;;;14.10;69.30;;;;;;5014155;28;20817;-64
2022/03/14 17:02:19;;;;;;;5.83;1.83;;;14.00;69.30;;;;;;5014256;28;20511;-64
2022/03/14 17:04:47;;;;;;;3.50;1.40;;;14.00;69.80;;;;;;5014350;28;20604;-64
2022/03/14 17:07:14;;;;;;;2.60;1.70;;;13.90;70.20;;;;;;5014017;28;20556;-64
2022/03/14 17:09:41;;;;;;;;;;;13.90;70.50;;;;;;5014450;28;20433;-64
2022/03/14 17:12:07;;;;;;;;;;;13.80;70.60;;;;;;5014234;28;20274;-64
2022/03/14 17:14:34;;;;;;;;;;;13.80;71.00;;;;;;5014371;28;19921;-65
2022/03/14 17:17:04;;;;;;;;;;;13.70;70.70;;;;;;5014508;28;19953;-65
2022/03/14 17:19:32;;;;;;;3.97;1.67;;;13.60;71.40;;;;;;5013985;28;20202;-64
2022/03/14 17:21:59;;;;;;;2.17;1.20;;;13.50;72.90;;;;;;5013896;28;20566;-64
2022/03/14 17:24:27;;;;;;;4.87;1.70;;;13.50;73.50;;;;;;5013925;28;20547;-64
2022/03/14 17:26:53;;;;;;;3.60;1.20;;;13.40;73.60;;;;;;5014237;28;20814;-63
2022/03/14 17:29:20;;;;;;;4.37;1.40;;;13.40;73.90;;;;;;5013762;28;20459;-63
2022/03/14 17:31:47;;;;;;;2.80;1.50;;;13.30;74.20;;;;;;5013674;28;20480;-63
2022/03/14 17:34:14;;;;;;;6.73;2.37;;;13.20;74.80;;;;;;5013836;28;20457;-63
2022/03/14 17:36:42;;;;;;;3.80;1.67;;;13.10;75.90;;;;;;5013791;28;20509;-62
2022/03/14 17:39:09;;;;;;;5.83;1.33;;;13.10;76.60;;;;;;5013718;28;20452;-64
2022/03/14 17:41:37;;;;;;;3.97;1.70;;;13.00;76.00;;;;;;5013615;28;20473;-63
2022/03/14 17:44:04;;;;;;;4.87;1.80;;;13.00;76.70;;;;;;5013643;28;20452;-63
2022/03/14 17:46:31;;;;;;;4.57;2.07;;;12.90;77.00;;;;;;5013621;28;20459;-63
2022/03/14 17:48:58;;;;;;;;;;;12.80;77.90;;;;;;5014400;28;20461;-63
2022/03/14 17:51:25;;;;;;;5.60;1.80;;;12.70;78.20;;;;;;5013887;28;20497;-62
2022/03/14 17:53:56;;;;;;;6.50;2.13;;;12.60;78.20;;;;;;5013388;28;20937;-63
2022/03/14 17:56:23;;;;;;;12.83;9.00;;;12.50;79.00;;;;;;5013402;28;20434;-63
2022/03/14 17:58:49;;;;;;;12.20;7.73;;;12.40;79.50;;;;;;5013167;28;20822;-64
2022/03/14 18:01:16;;;;;;;8.70;5.93;;;12.30;80.10;;;;;;5013284;28;20887;-63
2022/03/14 18:03:43;;;;;;;6.43;3.70;;;12.30;81.10;;;;;;5013297;28;20580;-65
2022/03/14 18:06:10;;;;;;;7.03;3.37;;;12.20;81.40;;;;;;5013462;28;20841;-65
2022/03/14 18:08:37;;;;;;;6.20;3.17;;;12.10;81.40;;;;;;5016361;28;20448;-64
2022/03/14 18:11:05;;;;;;;6.23;3.50;;;12.10;82.10;;;;;;5017073;28;20484;-63